sensor_id;sensor_type;location;lat;lon;timestamp;P1;durP1;ratioP1;P2;durP2;ratioP2
45909;SDS011;31622;55.416;37.840;2022-12-29T00:02:23;2.70;;;0.70;;
45909;SDS011;31622;55.416;37.840;2022-12-29T00:04:49;3.75;;;1.00;;
45909;SDS011;31622;55.416;37.840;2022-12-29T00:07:16;1.95;;;0.80;;
45909;SDS011;31622;55.416;37.840;2022-12-29T00:09:42;1.67;;;0.77;;
45909;SDS011;31622;55.416;37.840;2022-12-29T00:12:08;1.25;;;0.47;;
45909;SDS011;31622;55.416;37.840;2022-12-29T00:14:33;1.88;;;0.77;;
45909;SDS011;31622;55.416;37.840;2022-12-29T00:17:17;1.20;;;0.60;;
45909;SDS011;31622;55.416;37.840;2022-12-29T00:19:43;1.88;;;0.70;;
45909;SDS011;31622;55.416;37.840;2022-12-29T00:22:27;1.50;;;0.80;;
45909;SDS011;31622;55.416;37.840;2022-12-29T00:25:12;2.28;;;0.70;;
45909;SDS011;31622;55.416;37.840;2022-12-29T00:27:57;3.00;;;0.93;;
45909;SDS011;31622;55.416;37.840;2022-12-29T00:30:41;2.10;;;0.70;;
45909;SDS011;31622;55.416;37.840;2022-12-29T00:33:31;1.70;;;0.80;;
45909;SDS011;31622;55.416;37.840;2022-12-29T00:36:21;4.25;;;0.73;;
45909;SDS011;31622;55.416;37.840;2022-12-29T00:38:49;1.92;;;0.50;;
45909;SDS011;31622;55.416;37.840;2022-12-29T00:41:40;2.75;;;0.82;;
45909;SDS011;31622;55.416;37.840;2022-12-29T00:44:25;1.73;;;0.55;;
45909;SDS011;31622;55.416;37.840;2022-12-29T00:46:50;0.98;;;0.47;;
45909;SDS011;31622;55.416;37.840;2022-12-29T00:49:16;3.42;;;0.60;;
45909;SDS011;31622;55.416;37.840;2022-12-29T00:51:58;1.10;;;0.50;;
45909;SDS011;31622;55.416;37.840;2022-12-29T00:54:31;1.40;;;0.50;;
45909;SDS011;31622;55.416;37.840;2022-12-29T00:56:58;1.15;;;0.30;;
45909;SDS011;31622;55.416;37.840;2022-12-29T00:59:24;1.63;;;0.85;;
45909;SDS011;31622;55.416;37.840;2022-12-29T01:01:50;1.35;;;0.50;;
45909;SDS011;31622;55.416;37.840;2022-12-29T01:04:19;1.65;;;0.60;;
45909;SDS011;31622;55.416;37.840;2022-12-29T01:06:45;2.25;;;0.57;;
45909;SDS011;31622;55.416;37.840;2022-12-29T01:09:11;1.27;;;0.50;;
45909;SDS011;31622;55.416;37.840;2022-12-29T01:11:55;2.20;;;0.70;;
45909;SDS011;31622;55.416;37.840;2022-12-29T01:14:21;1.85;;;0.60;;
45909;SDS011;31622;55.416;37.840;2022-12-29T01:16:47;1.55;;;0.60;;
45909;SDS011;31622;55.416;37.840;2022-12-29T01:19:15;1.73;;;0.50;;
45909;SDS011;31622;55.416;37.840;2022-12-29T01:21:41;1.20;;;0.50;;
45909;SDS011;31622;55.416;37.840;2022-12-29T01:24:07;1.70;;;0.60;;
45909;SDS011;31622;55.416;37.840;2022-12-29T01:26:33;1.77;;;0.70;;
45909;SDS011;31622;55.416;37.840;2022-12-29T01:28:59;1.55;;;0.60;;
45909;SDS011;31622;55.416;37.840;2022-12-29T01:31:24;2.30;;;0.80;;
45909;SDS011;31622;55.416;37.840;2022-12-29T01:33:52;1.55;;;0.70;;
45909;SDS011;31622;55.416;37.840;2022-12-29T01:36:18;4.18;;;0.90;;
45909;SDS011;31622;55.416;37.840;2022-12-29T01:38:44;2.72;;;0.60;;
45909;SDS011;31622;55.416;37.840;2022-12-29T01:41:10;1.77;;;0.50;;
45909;SDS011;31622;55.416;37.840;2022-12-29T01:43:42;1.95;;;0.70;;
45909;SDS011;31622;55.416;37.840;2022-12-29T01:46:28;1.60;;;0.40;;
45909;SDS011;31622;55.416;37.840;2022-12-29T01:51:37;1.90;;;0.70;;
45909;SDS011;31622;55.416;37.840;2022-12-29T01:54:05;2.15;;;0.52;;
45909;SDS011;31622;55.416;37.840;2022-12-29T01:56:43;1.27;;;0.50;;
45909;SDS011;31622;55.416;37.840;2022-12-29T01:59:11;2.08;;;0.70;;
45909;SDS011;31622;55.416;37.840;2022-12-29T02:01:40;2.88;;;1.00;;
45909;SDS011;31622;55.416;37.840;2022-12-29T02:04:06;3.00;;;0.60;;
45909;SDS011;31622;55.416;37.840;2022-12-29T02:06:38;1.27;;;0.40;;
45909;SDS011;31622;55.416;37.840;2022-12-29T02:09:19;2.17;;;0.73;;
45909;SDS011;31622;55.416;37.840;2022-12-29T02:11:44;2.28;;;0.65;;
45909;SDS011;31622;55.416;37.840;2022-12-29T02:14:11;1.80;;;0.40;;
45909;SDS011;31622;55.416;37.840;2022-12-29T02:19:21;1.08;;;0.43;;
45909;SDS011;31622;55.416;37.840;2022-12-29T02:30:42;1.85;;;0.65;;
45909;SDS011;31622;55.416;37.840;2022-12-29T02:44:55;3.15;;;0.98;;
45909;SDS011;31622;55.416;37.840;2022-12-29T02:50:53;2.13;;;0.80;;
45909;SDS011;31622;55.416;37.840;2022-12-29T02:53:22;2.50;;;0.68;;
45909;SDS011;31622;55.416;37.840;2022-12-29T02:56:08;1.35;;;0.52;;
45909;SDS011;31622;55.416;37.840;2022-12-29T02:58:34;2.10;;;0.50;;
45909;SDS011;31622;55.416;37.840;2022-12-29T03:06:06;1.77;;;0.55;;
45909;SDS011;31622;55.416;37.840;2022-12-29T03:11:21;1.95;;;0.65;;
45909;SDS011;31622;55.416;37.840;2022-12-29T03:14:16;1.23;;;0.45;;
45909;SDS011;31622;55.416;37.840;2022-12-29T03:17:48;1.95;;;0.47;;
45909;SDS011;31622;55.416;37.840;2022-12-29T03:20:16;2.80;;;0.85;;
45909;SDS011;31622;55.416;37.840;2022-12-29T03:22:47;3.08;;;0.60;;
45909;SDS011;31622;55.416;37.840;2022-12-29T03:25:25;2.45;;;0.77;;
45909;SDS011;31622;55.416;37.840;2022-12-29T03:27:57;1.63;;;0.60;;
45909;SDS011;31622;55.416;37.840;2022-12-29T03:30:28;2.05;;;0.82;;
45909;SDS011;31622;55.416;37.840;2022-12-29T03:32:57;1.95;;;0.52;;
45909;SDS011;31622;55.416;37.840;2022-12-29T03:35:28;1.65;;;0.68;;
45909;SDS011;31622;55.416;37.840;2022-12-29T03:38:06;1.83;;;0.60;;
45909;SDS011;31622;55.416;37.840;2022-12-29T03:40:39;1.30;;;0.65;;
45909;SDS011;31622;55.416;37.840;2022-12-29T03:43:09;2.70;;;0.70;;
45909;SDS011;31622;55.416;37.840;2022-12-29T03:45:35;3.63;;;1.00;;
45909;SDS011;31622;55.416;37.840;2022-12-29T03:48:01;2.45;;;0.70;;
45909;SDS011;31622;55.416;37.840;2022-12-29T03:50:28;2.35;;;0.90;;
45909;SDS011;31622;55.416;37.840;2022-12-29T03:52:54;3.55;;;0.80;;
45909;SDS011;31622;55.416;37.840;2022-12-29T03:55:19;2.45;;;0.90;;
45909;SDS011;31622;55.416;37.840;2022-12-29T03:57:46;3.17;;;0.88;;
45909;SDS011;31622;55.416;37.840;2022-12-29T04:00:17;1.85;;;0.80;;
45909;SDS011;31622;55.416;37.840;2022-12-29T04:02:48;2.65;;;0.75;;
45909;SDS011;31622;55.416;37.840;2022-12-29T04:05:19;2.35;;;0.85;;
45909;SDS011;31622;55.416;37.840;2022-12-29T04:07:46;3.08;;;1.08;;
45909;SDS011;31622;55.416;37.840;2022-12-29T04:10:12;4.57;;;1.05;;
45909;SDS011;31622;55.416;37.840;2022-12-29T04:12:38;2.15;;;0.80;;
45909;SDS011;31622;55.416;37.840;2022-12-29T04:15:04;3.08;;;1.00;;
45909;SDS011;31622;55.416;37.840;2022-12-29T04:17:32;3.15;;;0.88;;
45909;SDS011;31622;55.416;37.840;2022-12-29T04:19:58;4.82;;;0.90;;
45909;SDS011;31622;55.416;37.840;2022-12-29T04:22:43;2.67;;;0.95;;
45909;SDS011;31622;55.416;37.840;2022-12-29T04:25:09;3.70;;;1.17;;
45909;SDS011;31622;55.416;37.840;2022-12-29T04:27:35;3.80;;;1.20;;
45909;SDS011;31622;55.416;37.840;2022-12-29T04:30:38;2.38;;;0.70;;
45909;SDS011;31622;55.416;37.840;2022-12-29T04:33:14;2.92;;;0.80;;
45909;SDS011;31622;55.416;37.840;2022-12-29T04:35:41;3.30;;;1.02;;
45909;SDS011;31622;55.416;37.840;2022-12-29T04:38:08;14.50;;;4.80;;
45909;SDS011;31622;55.416;37.840;2022-12-29T04:40:35;15.07;;;4.03;;
45909;SDS011;31622;55.416;37.840;2022-12-29T04:43:00;9.70;;;2.55;;
45909;SDS011;31622;55.416;37.840;2022-12-29T04:45:27;6.32;;;2.85;;
45909;SDS011;31622;55.416;37.840;2022-12-29T04:47:59;7.82;;;2.53;;
45909;SDS011;31622;55.416;37.840;2022-12-29T04:50:24;5.75;;;1.83;;
45909;SDS011;31622;55.416;37.840;2022-12-29T04:52:54;7.93;;;2.42;;
45909;SDS011;31622;55.416;37.840;2022-12-29T04:55:20;5.97;;;2.00;;
45909;SDS011;31622;55.416;37.840;2022-12-29T04:57:46;8.60;;;2.40;;
45909;SDS011;31622;55.416;37.840;2022-12-29T05:00:16;5.55;;;1.80;;
45909;SDS011;31622;55.416;37.840;2022-12-29T05:02:42;7.35;;;1.70;;
45909;SDS011;31622;55.416;37.840;2022-12-29T05:05:09;10.00;;;1.83;;
45909;SDS011;31622;55.416;37.840;2022-12-29T05:07:40;5.35;;;1.70;;
45909;SDS011;31622;55.416;37.840;2022-12-29T05:10:06;5.00;;;1.55;;
45909;SDS011;31622;55.416;37.840;2022-12-29T05:12:33;2.80;;;1.23;;
45909;SDS011;31622;55.416;37.840;2022-12-29T05:15:00;9.25;;;2.22;;
45909;SDS011;31622;55.416;37.840;2022-12-29T05:17:28;3.80;;;1.05;;
45909;SDS011;31622;55.416;37.840;2022-12-29T05:19:54;4.80;;;1.58;;
45909;SDS011;31622;55.416;37.840;2022-12-29T05:22:20;3.15;;;1.20;;
45909;SDS011;31622;55.416;37.840;2022-12-29T05:24:46;5.65;;;1.30;;
45909;SDS011;31622;55.416;37.840;2022-12-29T05:27:12;3.50;;;1.42;;
45909;SDS011;31622;55.416;37.840;2022-12-29T05:30:08;3.53;;;1.63;;
45909;SDS011;31622;55.416;37.840;2022-12-29T05:32:34;3.65;;;1.25;;
45909;SDS011;31622;55.416;37.840;2022-12-29T05:35:00;5.20;;;1.40;;
45909;SDS011;31622;55.416;37.840;2022-12-29T05:37:27;4.25;;;1.30;;
45909;SDS011;31622;55.416;37.840;2022-12-29T05:39:53;2.67;;;1.17;;
45909;SDS011;31622;55.416;37.840;2022-12-29T05:42:19;4.50;;;1.35;;
45909;SDS011;31622;55.416;37.840;2022-12-29T05:45:10;4.13;;;1.27;;
45909;SDS011;31622;55.416;37.840;2022-12-29T05:47:50;5.28;;;1.23;;
45909;SDS011;31622;55.416;37.840;2022-12-29T05:50:33;3.40;;;1.33;;
45909;SDS011;31622;55.416;37.840;2022-12-29T05:53:10;5.63;;;1.27;;
45909;SDS011;31622;55.416;37.840;2022-12-29T05:55:37;3.08;;;1.15;;
45909;SDS011;31622;55.416;37.840;2022-12-29T05:58:03;2.65;;;1.20;;
45909;SDS011;31622;55.416;37.840;2022-12-29T06:00:29;4.28;;;0.90;;
45909;SDS011;31622;55.416;37.840;2022-12-29T06:02:55;2.30;;;1.20;;
45909;SDS011;31622;55.416;37.840;2022-12-29T06:05:20;3.22;;;1.20;;
45909;SDS011;31622;55.416;37.840;2022-12-29T06:07:46;2.85;;;1.23;;
45909;SDS011;31622;55.416;37.840;2022-12-29T06:10:14;3.17;;;1.35;;
45909;SDS011;31622;55.416;37.840;2022-12-29T06:12:44;2.38;;;1.05;;
45909;SDS011;31622;55.416;37.840;2022-12-29T06:15:10;3.60;;;1.02;;
45909;SDS011;31622;55.416;37.840;2022-12-29T06:17:38;2.88;;;1.00;;
45909;SDS011;31622;55.416;37.840;2022-12-29T06:20:04;4.35;;;1.67;;
45909;SDS011;31622;55.416;37.840;2022-12-29T06:22:31;3.22;;;1.17;;
45909;SDS011;31622;55.416;37.840;2022-12-29T06:24:56;3.78;;;1.30;;
45909;SDS011;31622;55.416;37.840;2022-12-29T06:27:22;4.57;;;1.33;;
45909;SDS011;31622;55.416;37.840;2022-12-29T06:29:49;3.00;;;1.10;;
45909;SDS011;31622;55.416;37.840;2022-12-29T06:32:15;1.83;;;0.93;;
45909;SDS011;31622;55.416;37.840;2022-12-29T06:34:46;3.35;;;1.00;;
45909;SDS011;31622;55.416;37.840;2022-12-29T06:37:12;2.50;;;1.02;;
45909;SDS011;31622;55.416;37.840;2022-12-29T06:39:39;2.90;;;1.10;;
45909;SDS011;31622;55.416;37.840;2022-12-29T06:42:09;3.72;;;1.15;;
45909;SDS011;31622;55.416;37.840;2022-12-29T06:44:51;2.30;;;0.95;;
45909;SDS011;31622;55.416;37.840;2022-12-29T06:47:17;2.65;;;1.20;;
45909;SDS011;31622;55.416;37.840;2022-12-29T06:49:43;5.20;;;1.20;;
45909;SDS011;31622;55.416;37.840;2022-12-29T06:52:09;2.83;;;1.13;;
45909;SDS011;31622;55.416;37.840;2022-12-29T06:54:35;3.60;;;1.02;;
45909;SDS011;31622;55.416;37.840;2022-12-29T06:57:01;2.83;;;1.10;;
45909;SDS011;31622;55.416;37.840;2022-12-29T06:59:27;3.60;;;1.00;;
45909;SDS011;31622;55.416;37.840;2022-12-29T07:01:52;2.47;;;0.93;;
45909;SDS011;31622;55.416;37.840;2022-12-29T07:04:18;2.50;;;0.95;;
45909;SDS011;31622;55.416;37.840;2022-12-29T07:06:44;3.03;;;1.02;;
45909;SDS011;31622;55.416;37.840;2022-12-29T07:09:09;3.60;;;1.33;;
45909;SDS011;31622;55.416;37.840;2022-12-29T07:11:36;3.30;;;1.20;;
45909;SDS011;31622;55.416;37.840;2022-12-29T07:14:02;3.28;;;1.23;;
45909;SDS011;31622;55.416;37.840;2022-12-29T07:16:28;3.17;;;1.08;;
45909;SDS011;31622;55.416;37.840;2022-12-29T07:18:55;3.63;;;1.25;;
45909;SDS011;31622;55.416;37.840;2022-12-29T07:21:21;2.85;;;1.00;;
45909;SDS011;31622;55.416;37.840;2022-12-29T07:23:47;2.45;;;1.00;;
45909;SDS011;31622;55.416;37.840;2022-12-29T07:26:13;3.10;;;1.20;;
45909;SDS011;31622;55.416;37.840;2022-12-29T07:28:39;4.38;;;1.27;;
45909;SDS011;31622;55.416;37.840;2022-12-29T07:31:05;2.78;;;1.38;;
45909;SDS011;31622;55.416;37.840;2022-12-29T07:33:31;4.60;;;1.40;;
45909;SDS011;31622;55.416;37.840;2022-12-29T07:35:58;2.25;;;1.20;;
45909;SDS011;31622;55.416;37.840;2022-12-29T07:38:24;3.28;;;1.50;;
45909;SDS011;31622;55.416;37.840;2022-12-29T07:40:50;6.45;;;1.40;;
45909;SDS011;31622;55.416;37.840;2022-12-29T07:43:16;4.63;;;1.52;;
45909;SDS011;31622;55.416;37.840;2022-12-29T07:45:58;10.18;;;1.98;;
45909;SDS011;31622;55.416;37.840;2022-12-29T07:48:25;4.47;;;1.45;;
45909;SDS011;31622;55.416;37.840;2022-12-29T07:50:51;4.90;;;1.30;;
45909;SDS011;31622;55.416;37.840;2022-12-29T07:53:17;4.80;;;1.35;;
45909;SDS011;31622;55.416;37.840;2022-12-29T07:55:43;3.53;;;1.42;;
45909;SDS011;31622;55.416;37.840;2022-12-29T07:58:09;2.50;;;1.13;;
45909;SDS011;31622;55.416;37.840;2022-12-29T08:00:34;6.38;;;1.40;;
45909;SDS011;31622;55.416;37.840;2022-12-29T08:03:00;3.40;;;1.60;;
45909;SDS011;31622;55.416;37.840;2022-12-29T08:05:26;7.35;;;1.52;;
45909;SDS011;31622;55.416;37.840;2022-12-29T08:07:52;5.25;;;1.25;;
45909;SDS011;31622;55.416;37.840;2022-12-29T08:10:17;3.42;;;1.15;;
45909;SDS011;31622;55.416;37.840;2022-12-29T08:12:43;4.50;;;1.23;;
45909;SDS011;31622;55.416;37.840;2022-12-29T08:15:10;5.03;;;1.50;;
45909;SDS011;31622;55.416;37.840;2022-12-29T08:17:36;6.10;;;1.58;;
45909;SDS011;31622;55.416;37.840;2022-12-29T08:20:02;8.52;;;2.22;;
45909;SDS011;31622;55.416;37.840;2022-12-29T08:22:29;20.88;;;4.55;;
45909;SDS011;31622;55.416;37.840;2022-12-29T08:24:54;10.55;;;3.58;;
45909;SDS011;31622;55.416;37.840;2022-12-29T08:27:20;11.23;;;3.88;;
45909;SDS011;31622;55.416;37.840;2022-12-29T08:29:46;8.45;;;2.90;;
45909;SDS011;31622;55.416;37.840;2022-12-29T08:32:12;9.27;;;2.80;;
45909;SDS011;31622;55.416;37.840;2022-12-29T08:34:38;7.13;;;2.33;;
45909;SDS011;31622;55.416;37.840;2022-12-29T08:37:03;9.57;;;2.53;;
45909;SDS011;31622;55.416;37.840;2022-12-29T08:39:29;8.30;;;2.80;;
45909;SDS011;31622;55.416;37.840;2022-12-29T08:41:55;9.35;;;2.90;;
45909;SDS011;31622;55.416;37.840;2022-12-29T08:44:21;10.05;;;2.08;;
45909;SDS011;31622;55.416;37.840;2022-12-29T08:46:46;7.53;;;2.58;;
45909;SDS011;31622;55.416;37.840;2022-12-29T08:49:12;12.63;;;3.10;;
45909;SDS011;31622;55.416;37.840;2022-12-29T08:51:38;13.20;;;3.22;;
45909;SDS011;31622;55.416;37.840;2022-12-29T08:54:04;14.45;;;3.45;;
45909;SDS011;31622;55.416;37.840;2022-12-29T08:56:30;12.68;;;3.25;;
45909;SDS011;31622;55.416;37.840;2022-12-29T08:58:58;15.75;;;4.60;;
45909;SDS011;31622;55.416;37.840;2022-12-29T09:01:27;16.20;;;5.85;;
45909;SDS011;31622;55.416;37.840;2022-12-29T09:03:53;21.05;;;6.03;;
45909;SDS011;31622;55.416;37.840;2022-12-29T09:06:19;14.45;;;6.47;;
45909;SDS011;31622;55.416;37.840;2022-12-29T09:08:45;18.33;;;6.57;;
45909;SDS011;31622;55.416;37.840;2022-12-29T09:11:15;17.95;;;6.68;;
45909;SDS011;31622;55.416;37.840;2022-12-29T09:13:45;16.48;;;6.03;;
45909;SDS011;31622;55.416;37.840;2022-12-29T09:16:11;14.23;;;5.68;;
45909;SDS011;31622;55.416;37.840;2022-12-29T09:18:37;16.05;;;5.13;;
45909;SDS011;31622;55.416;37.840;2022-12-29T09:21:04;10.43;;;4.95;;
45909;SDS011;31622;55.416;37.840;2022-12-29T09:23:30;12.23;;;4.47;;
45909;SDS011;31622;55.416;37.840;2022-12-29T09:25:56;10.50;;;4.40;;
45909;SDS011;31622;55.416;37.840;2022-12-29T09:28:22;10.98;;;4.35;;
45909;SDS011;31622;55.416;37.840;2022-12-29T09:30:48;11.00;;;4.63;;
45909;SDS011;31622;55.416;37.840;2022-12-29T09:33:14;10.50;;;4.35;;
45909;SDS011;31622;55.416;37.840;2022-12-29T09:35:44;10.95;;;4.25;;
45909;SDS011;31622;55.416;37.840;2022-12-29T09:38:10;6.60;;;3.22;;
45909;SDS011;31622;55.416;37.840;2022-12-29T09:40:36;12.23;;;4.07;;
45909;SDS011;31622;55.416;37.840;2022-12-29T09:43:17;9.45;;;3.45;;
45909;SDS011;31622;55.416;37.840;2022-12-29T09:51:46;53.80;;;8.50;;
45909;SDS011;31622;55.416;37.840;2022-12-29T09:54:29;32.58;;;6.28;;
45909;SDS011;31622;55.416;37.840;2022-12-29T09:56:58;49.33;;;6.85;;
45909;SDS011;31622;55.416;37.840;2022-12-29T09:59:25;38.78;;;6.20;;
45909;SDS011;31622;55.416;37.840;2022-12-29T10:02:02;30.77;;;5.05;;
45909;SDS011;31622;55.416;37.840;2022-12-29T10:04:42;21.10;;;5.65;;
45909;SDS011;31622;55.416;37.840;2022-12-29T10:10:03;22.35;;;4.30;;
45909;SDS011;31622;55.416;37.840;2022-12-29T10:15:52;14.15;;;3.63;;
45909;SDS011;31622;55.416;37.840;2022-12-29T10:21:17;14.23;;;3.13;;
45909;SDS011;31622;55.416;37.840;2022-12-29T10:23:53;17.00;;;2.85;;
45909;SDS011;31622;55.416;37.840;2022-12-29T10:26:38;15.88;;;3.42;;
45909;SDS011;31622;55.416;37.840;2022-12-29T10:29:08;11.75;;;3.22;;
45909;SDS011;31622;55.416;37.840;2022-12-29T10:32:05;11.43;;;3.00;;
45909;SDS011;31622;55.416;37.840;2022-12-29T10:34:34;15.25;;;3.55;;
45909;SDS011;31622;55.416;37.840;2022-12-29T10:37:17;16.05;;;3.33;;
45909;SDS011;31622;55.416;37.840;2022-12-29T10:40:11;9.07;;;3.05;;
45909;SDS011;31622;55.416;37.840;2022-12-29T10:42:45;8.45;;;2.90;;
45909;SDS011;31622;55.416;37.840;2022-12-29T10:45:15;9.32;;;3.58;;
45909;SDS011;31622;55.416;37.840;2022-12-29T10:50:51;11.40;;;3.58;;
45909;SDS011;31622;55.416;37.840;2022-12-29T10:53:20;7.88;;;2.88;;
45909;SDS011;31622;55.416;37.840;2022-12-29T10:55:49;13.25;;;3.47;;
45909;SDS011;31622;55.416;37.840;2022-12-29T10:58:15;16.42;;;3.78;;
45909;SDS011;31622;55.416;37.840;2022-12-29T11:00:41;10.77;;;3.20;;
45909;SDS011;31622;55.416;37.840;2022-12-29T11:08:09;11.73;;;3.28;;
45909;SDS011;31622;55.416;37.840;2022-12-29T11:10:38;9.57;;;3.20;;
45909;SDS011;31622;55.416;37.840;2022-12-29T11:15:40;7.50;;;2.60;;
45909;SDS011;31622;55.416;37.840;2022-12-29T11:21:04;7.15;;;2.58;;
45909;SDS011;31622;55.416;37.840;2022-12-29T11:23:36;5.45;;;2.30;;
45909;SDS011;31622;55.416;37.840;2022-12-29T11:26:14;5.05;;;2.40;;
45909;SDS011;31622;55.416;37.840;2022-12-29T11:28:44;9.65;;;2.63;;
45909;SDS011;31622;55.416;37.840;2022-12-29T11:31:15;6.78;;;2.33;;
45909;SDS011;31622;55.416;37.840;2022-12-29T11:33:41;5.95;;;2.65;;
45909;SDS011;31622;55.416;37.840;2022-12-29T11:36:09;4.70;;;2.17;;
45909;SDS011;31622;55.416;37.840;2022-12-29T11:38:50;6.60;;;1.90;;
45909;SDS011;31622;55.416;37.840;2022-12-29T11:41:26;5.70;;;2.60;;
45909;SDS011;31622;55.416;37.840;2022-12-29T11:43:54;3.67;;;2.20;;
45909;SDS011;31622;55.416;37.840;2022-12-29T11:46:26;6.25;;;2.40;;
45909;SDS011;31622;55.416;37.840;2022-12-29T11:48:54;6.25;;;3.40;;
45909;SDS011;31622;55.416;37.840;2022-12-29T11:51:25;6.72;;;4.30;;
45909;SDS011;31622;55.416;37.840;2022-12-29T11:53:56;9.68;;;4.68;;
45909;SDS011;31622;55.416;37.840;2022-12-29T11:56:36;10.40;;;4.85;;
45909;SDS011;31622;55.416;37.840;2022-12-29T11:59:25;8.50;;;4.70;;
45909;SDS011;31622;55.416;37.840;2022-12-29T12:04:49;8.52;;;4.78;;
45909;SDS011;31622;55.416;37.840;2022-12-29T12:07:17;9.18;;;5.30;;
45909;SDS011;31622;55.416;37.840;2022-12-29T12:12:56;7.40;;;5.07;;
45909;SDS011;31622;55.416;37.840;2022-12-29T12:15:24;8.50;;;4.75;;
45909;SDS011;31622;55.416;37.840;2022-12-29T12:18:25;7.18;;;4.60;;
45909;SDS011;31622;55.416;37.840;2022-12-29T12:21:15;6.50;;;3.90;;
45909;SDS011;31622;55.416;37.840;2022-12-29T12:29:16;15.15;;;4.22;;
45909;SDS011;31622;55.416;37.840;2022-12-29T12:32:14;13.35;;;4.20;;
45909;SDS011;31622;55.416;37.840;2022-12-29T12:34:44;17.50;;;4.57;;
45909;SDS011;31622;55.416;37.840;2022-12-29T12:51:51;9.70;;;4.30;;
45909;SDS011;31622;55.416;37.840;2022-12-29T12:57:22;11.63;;;3.78;;
45909;SDS011;31622;55.416;37.840;2022-12-29T13:00:14;14.05;;;4.30;;
45909;SDS011;31622;55.416;37.840;2022-12-29T13:28:15;11.93;;;3.65;;
45909;SDS011;31622;55.416;37.840;2022-12-29T13:38:50;9.70;;;3.20;;
45909;SDS011;31622;55.416;37.840;2022-12-29T13:41:31;9.75;;;2.80;;
45909;SDS011;31622;55.416;37.840;2022-12-29T13:44:03;6.50;;;3.17;;
45909;SDS011;31622;55.416;37.840;2022-12-29T13:46:40;7.78;;;2.78;;
45909;SDS011;31622;55.416;37.840;2022-12-29T13:51:56;6.45;;;2.60;;
45909;SDS011;31622;55.416;37.840;2022-12-29T13:56:58;7.35;;;3.10;;
45909;SDS011;31622;55.416;37.840;2022-12-29T13:59:42;14.10;;;3.47;;
45909;SDS011;31622;55.416;37.840;2022-12-29T14:05:26;15.85;;;3.63;;
45909;SDS011;31622;55.416;37.840;2022-12-29T14:07:59;14.68;;;3.40;;
45909;SDS011;31622;55.416;37.840;2022-12-29T14:10:33;12.02;;;3.30;;
45909;SDS011;31622;55.416;37.840;2022-12-29T14:15:38;10.10;;;2.95;;
45909;SDS011;31622;55.416;37.840;2022-12-29T14:18:14;12.02;;;3.10;;
45909;SDS011;31622;55.416;37.840;2022-12-29T14:23:26;7.38;;;2.70;;
45909;SDS011;31622;55.416;37.840;2022-12-29T14:31:01;8.05;;;2.88;;
45909;SDS011;31622;55.416;37.840;2022-12-29T14:41:36;7.43;;;2.80;;
45909;SDS011;31622;55.416;37.840;2022-12-29T14:46:42;4.68;;;2.47;;
45909;SDS011;31622;55.416;37.840;2022-12-29T14:49:24;5.13;;;2.50;;
45909;SDS011;31622;55.416;37.840;2022-12-29T14:51:52;6.60;;;3.40;;
45909;SDS011;31622;55.416;37.840;2022-12-29T14:57:07;5.78;;;2.90;;
45909;SDS011;31622;55.416;37.840;2022-12-29T14:59:39;4.63;;;2.47;;
45909;SDS011;31622;55.416;37.840;2022-12-29T15:02:12;8.23;;;3.22;;
45909;SDS011;31622;55.416;37.840;2022-12-29T15:04:41;4.68;;;2.42;;
45909;SDS011;31622;55.416;37.840;2022-12-29T15:07:08;11.25;;;3.20;;
45909;SDS011;31622;55.416;37.840;2022-12-29T15:09:36;6.40;;;3.25;;
45909;SDS011;31622;55.416;37.840;2022-12-29T15:12:06;8.18;;;3.05;;
45909;SDS011;31622;55.416;37.840;2022-12-29T15:14:56;8.27;;;3.60;;
45909;SDS011;31622;55.416;37.840;2022-12-29T15:17:29;7.00;;;2.58;;
45909;SDS011;31622;55.416;37.840;2022-12-29T15:20:22;5.43;;;2.60;;
45909;SDS011;31622;55.416;37.840;2022-12-29T15:22:54;5.63;;;2.80;;
45909;SDS011;31622;55.416;37.840;2022-12-29T15:25:21;6.53;;;2.75;;
45909;SDS011;31622;55.416;37.840;2022-12-29T15:28:00;6.13;;;2.65;;
45909;SDS011;31622;55.416;37.840;2022-12-29T15:30:30;4.72;;;2.35;;
45909;SDS011;31622;55.416;37.840;2022-12-29T15:32:56;5.53;;;2.70;;
45909;SDS011;31622;55.416;37.840;2022-12-29T15:37:52;6.80;;;2.60;;
45909;SDS011;31622;55.416;37.840;2022-12-29T15:40:22;5.32;;;2.47;;
45909;SDS011;31622;55.416;37.840;2022-12-29T15:45:54;6.55;;;2.40;;
45909;SDS011;31622;55.416;37.840;2022-12-29T15:48:24;4.22;;;2.15;;
45909;SDS011;31622;55.416;37.840;2022-12-29T15:50:50;3.85;;;1.77;;
45909;SDS011;31622;55.416;37.840;2022-12-29T15:53:20;5.13;;;2.70;;
45909;SDS011;31622;55.416;37.840;2022-12-29T15:55:51;5.57;;;2.20;;
45909;SDS011;31622;55.416;37.840;2022-12-29T15:58:18;8.90;;;2.20;;
45909;SDS011;31622;55.416;37.840;2022-12-29T16:00:50;4.05;;;2.15;;
45909;SDS011;31622;55.416;37.840;2022-12-29T16:03:18;4.43;;;2.28;;
45909;SDS011;31622;55.416;37.840;2022-12-29T16:05:49;6.57;;;2.38;;
45909;SDS011;31622;55.416;37.840;2022-12-29T16:11:03;4.68;;;2.30;;
45909;SDS011;31622;55.416;37.840;2022-12-29T16:13:43;4.45;;;2.00;;
45909;SDS011;31622;55.416;37.840;2022-12-29T16:16:19;3.72;;;2.13;;
45909;SDS011;31622;55.416;37.840;2022-12-29T16:18:49;5.15;;;2.40;;
45909;SDS011;31622;55.416;37.840;2022-12-29T16:21:48;6.72;;;2.33;;
45909;SDS011;31622;55.416;37.840;2022-12-29T16:24:12;6.45;;;2.50;;
45909;SDS011;31622;55.416;37.840;2022-12-29T16:26:44;4.47;;;2.00;;
45909;SDS011;31622;55.416;37.840;2022-12-29T16:29:15;5.13;;;2.17;;
45909;SDS011;31622;55.416;37.840;2022-12-29T16:36:54;5.53;;;2.33;;
45909;SDS011;31622;55.416;37.840;2022-12-29T16:39:31;6.10;;;2.53;;
45909;SDS011;31622;55.416;37.840;2022-12-29T16:41:59;3.40;;;2.05;;
45909;SDS011;31622;55.416;37.840;2022-12-29T16:44:26;3.67;;;2.10;;
45909;SDS011;31622;55.416;37.840;2022-12-29T16:47:15;5.93;;;2.35;;
45909;SDS011;31622;55.416;37.840;2022-12-29T16:49:45;3.30;;;2.10;;
45909;SDS011;31622;55.416;37.840;2022-12-29T16:52:36;5.97;;;2.63;;
45909;SDS011;31622;55.416;37.840;2022-12-29T16:55:01;3.53;;;2.15;;
45909;SDS011;31622;55.416;37.840;2022-12-29T16:57:28;3.42;;;2.08;;
45909;SDS011;31622;55.416;37.840;2022-12-29T16:59:59;3.47;;;1.98;;
45909;SDS011;31622;55.416;37.840;2022-12-29T17:02:28;4.55;;;2.17;;
45909;SDS011;31622;55.416;37.840;2022-12-29T17:04:54;6.45;;;2.55;;
45909;SDS011;31622;55.416;37.840;2022-12-29T17:07:21;2.97;;;2.13;;
45909;SDS011;31622;55.416;37.840;2022-12-29T17:09:48;3.03;;;2.10;;
45909;SDS011;31622;55.416;37.840;2022-12-29T17:12:25;3.67;;;2.30;;
45909;SDS011;31622;55.416;37.840;2022-12-29T17:14:53;4.18;;;2.00;;
45909;SDS011;31622;55.416;37.840;2022-12-29T17:19:57;4.90;;;2.10;;
45909;SDS011;31622;55.416;37.840;2022-12-29T17:22:28;5.93;;;3.00;;
45909;SDS011;31622;55.416;37.840;2022-12-29T17:24:55;5.07;;;2.15;;
45909;SDS011;31622;55.416;37.840;2022-12-29T17:29:49;4.65;;;2.00;;
45909;SDS011;31622;55.416;37.840;2022-12-29T17:32:16;3.83;;;2.05;;
45909;SDS011;31622;55.416;37.840;2022-12-29T17:34:42;3.08;;;1.98;;
45909;SDS011;31622;55.416;37.840;2022-12-29T17:39:48;5.15;;;2.33;;
45909;SDS011;31622;55.416;37.840;2022-12-29T17:42:14;4.20;;;2.28;;
45909;SDS011;31622;55.416;37.840;2022-12-29T17:44:39;4.72;;;2.22;;
45909;SDS011;31622;55.416;37.840;2022-12-29T17:47:08;4.63;;;2.10;;
45909;SDS011;31622;55.416;37.840;2022-12-29T17:49:35;2.72;;;1.80;;
45909;SDS011;31622;55.416;37.840;2022-12-29T17:52:01;4.35;;;2.15;;
45909;SDS011;31622;55.416;37.840;2022-12-29T17:54:27;4.00;;;2.50;;
45909;SDS011;31622;55.416;37.840;2022-12-29T17:56:53;4.40;;;2.65;;